Time;durP1;ratioP1;P1;durP2;ratioP2;P2;SDS_P1;SDS_P2;PMS_P1;PMS_P2;Temp;Humidity;BMP_temperature;BMP_pressure;BME280_temperature;BME280_humidity;BME280_pressure;Samples;Min_cycle;Max_cycle;Signal;HPM_P1;HPM_P2
2022/06/20 00:01:41;;;;;;;19.13;10.20;;;22.40;99.90;;;;;;5046940;28;20480;-85
2022/06/20 00:04:15;;;;;;;23.33;9.70;;;22.40;99.90;;;;;;5049342;28;20428;-86
2022/06/20 00:06:41;;;;;;;22.73;10.67;;;22.50;99.90;;;;;;5049145;28;20172;-86
2022/06/20 00:09:07;;;;;;;14.33;10.03;;;22.40;99.90;;;;;;5048607;28;20439;-87
2022/06/20 00:11:41;;;;;;;13.20;9.57;;;22.30;99.90;;;;;;5048845;28;20432;-87
2022/06/20 00:14:12;;;;;;;17.23;10.40;;;22.30;99.90;;;;;;5049093;28;20145;-88
2022/06/20 00:16:38;;;;;;;22.83;10.37;;;22.20;99.90;;;;;;5049187;28;20452;-88
2022/06/20 00:19:03;;;;;;;20.60;10.33;;;22.20;99.90;;;;;;5031108;28;20436;-85
2022/06/20 00:21:30;;;;;;;18.50;9.80;;;22.10;99.90;;;;;;5029260;28;20178;-86
2022/06/20 00:23:55;;;;;;;19.97;10.47;;;22.10;99.90;;;;;;5047895;28;20200;-87
2022/06/20 00:26:21;;;;;;;24.63;10.80;;;22.10;99.90;;;;;;5047662;28;20416;-86
2022/06/20 00:28:48;;;;;;;11.13;9.37;;;22.10;99.90;;;;;;5031211;28;20779;-86
2022/06/20 00:31:14;;;;;;;19.33;11.27;;;22.10;99.90;;;;;;5038701;28;20190;-85
2022/06/20 00:33:40;;;;;;;16.43;8.80;;;22.10;99.90;;;;;;5028248;28;20965;-85
2022/06/20 00:36:06;;;;;;;13.47;9.50;;;22.10;99.90;;;;;;5048892;28;20470;-86
2022/06/20 00:38:32;;;;;;;13.80;9.57;;;22.00;99.90;;;;;;5055944;28;20190;-85
2022/06/20 00:41:04;;;;;;;15.20;9.13;;;22.00;99.90;;;;;;5047820;28;20435;-87
2022/06/20 00:43:42;;;;;;;17.80;10.17;;;22.00;99.90;;;;;;5043714;28;20706;-87
2022/06/20 00:46:35;;;;;;;13.23;10.07;;;22.00;99.90;;;;;;5044935;28;20990;-86
2022/06/20 00:49:38;;;;;;;19.30;10.37;;;22.00;99.90;;;;;;5045102;28;20798;-86
2022/06/20 00:52:25;;;;;;;16.03;11.13;;;22.00;99.90;;;;;;5056699;28;20415;-86
2022/06/20 00:55:15;;;;;;;17.53;8.80;;;21.90;99.90;;;;;;5026957;28;20480;-87
2022/06/20 00:57:48;;;;;;;13.03;9.33;;;21.80;99.90;;;;;;5026146;28;20409;-84
2022/06/20 01:00:22;;;;;;;18.10;9.60;;;21.60;99.90;;;;;;5041611;28;20432;-84
2022/06/20 01:02:53;;;;;;;16.33;10.40;;;21.60;99.90;;;;;;5040952;28;20443;-83
2022/06/20 01:05:27;;;;;;;16.30;9.20;;;21.50;99.90;;;;;;5040554;28;20444;-85
2022/06/20 01:08:04;;;;;;;19.90;9.83;;;21.60;99.90;;;;;;5041185;28;20408;-85
2022/06/20 01:10:42;;;;;;;14.00;9.00;;;21.60;99.90;;;;;;5044776;28;20436;-84
2022/06/20 01:13:14;;;;;;;16.03;9.40;;;21.60;99.90;;;;;;5043349;28;20531;-85
2022/06/20 01:15:42;;;;;;;15.03;8.93;;;21.60;99.90;;;;;;5044566;28;20447;-84
2022/06/20 01:18:20;;;;;;;18.93;9.43;;;21.50;99.90;;;;;;5058714;28;20419;-84
2022/06/20 01:20:47;;;;;;;18.07;10.50;;;21.40;99.90;;;;;;5047925;28;20444;-84
2022/06/20 01:23:42;;;;;;;10.13;8.10;;;21.40;99.90;;;;;;5054414;28;20895;-86
2022/06/20 01:26:15;;;;;;;15.37;10.57;;;21.40;99.90;;;;;;5041140;28;21257;-84
2022/06/20 01:28:45;;;;;;;19.00;9.30;;;21.30;99.90;;;;;;5023559;28;20417;-84
2022/06/20 01:31:14;;;;;;;11.00;9.07;;;21.30;99.90;;;;;;5040578;28;20468;-83
2022/06/20 01:33:40;;;;;;;14.73;9.80;;;21.30;99.90;;;;;;5040656;28;20455;-83
2022/06/20 01:38:55;;;;;;;12.87;8.07;;;21.50;99.90;;;;;;5039266;28;20891;-83
2022/06/20 01:44:06;;;;;;;20.10;10.30;;;21.60;99.90;;;;;;5018834;28;20397;-84
2022/06/20 01:46:33;;;;;;;20.30;10.10;;;21.60;99.90;;;;;;5011141;28;20487;-83
2022/06/20 01:49:08;;;;;;;16.30;9.67;;;21.30;99.90;;;;;;5036555;28;20452;-83
2022/06/20 01:51:45;;;;;;;15.10;9.97;;;21.30;99.90;;;;;;5021025;28;20831;-83
2022/06/20 01:54:13;;;;;;;17.13;10.03;;;21.50;99.90;;;;;;5039048;28;20420;-84
2022/06/20 01:56:42;;;;;;;25.13;10.27;;;21.50;99.90;;;;;;5040712;28;20532;-86
2022/06/20 01:59:13;;;;;;;14.20;9.30;;;21.30;99.90;;;;;;5039572;28;20463;-85
2022/06/20 02:01:40;;;;;;;15.70;8.77;;;21.30;99.90;;;;;;5038067;28;20424;-82
2022/06/20 02:04:12;;;;;;;19.43;10.30;;;21.40;99.90;;;;;;5038335;28;20385;-84
2022/06/20 02:06:39;;;;;;;13.40;9.40;;;21.20;99.90;;;;;;5040335;28;20413;-84
2022/06/20 02:09:06;;;;;;;18.13;11.10;;;20.80;99.90;;;;;;5041532;28;20417;-84
2022/06/20 02:11:39;;;;;;;15.47;9.33;;;20.80;99.90;;;;;;5043021;28;20749;-85
2022/06/20 02:14:12;;;;;;;18.93;9.87;;;20.60;99.90;;;;;;5024197;28;20425;-84
2022/06/20 02:16:41;;;;;;;22.63;9.80;;;20.40;99.90;;;;;;5023054;28;20507;-85
2022/06/20 02:19:09;;;;;;;22.53;10.87;;;20.30;99.90;;;;;;5042101;28;20425;-85
2022/06/20 02:21:36;;;;;;;17.70;10.50;;;20.30;99.90;;;;;;5022413;28;20415;-86
2022/06/20 02:24:10;;;;;;;16.37;9.27;;;20.20;99.90;;;;;;5039304;28;20444;-84
2022/06/20 02:26:38;;;;;;;18.10;9.80;;;20.20;99.90;;;;;;5048115;28;20435;-86
2022/06/20 02:29:27;;;;;;;15.53;10.20;;;20.10;99.90;;;;;;5022805;28;20973;-85
2022/06/20 02:32:14;;;;;;;15.80;10.10;;;20.10;99.90;;;;;;5022349;28;20443;-85
2022/06/20 02:34:40;;;;;;;17.27;9.63;;;20.10;99.90;;;;;;5051367;28;20459;-84
2022/06/20 02:37:10;;;;;;;16.60;10.03;;;20.10;99.90;;;;;;5039410;28;20440;-83
2022/06/20 02:39:38;;;;;;;21.80;10.80;;;20.20;99.90;;;;;;5035583;28;20198;-86
2022/06/20 02:42:18;;;;;;;18.20;11.00;;;20.20;99.90;;;;;;5028382;28;20409;-86
2022/06/20 02:44:47;;;;;;;11.37;9.10;;;20.20;99.90;;;;;;5036319;28;20407;-85
2022/06/20 02:47:14;;;;;;;18.80;11.97;;;20.70;99.90;;;;;;5045159;28;20457;-85
2022/06/20 02:49:41;;;;;;;16.13;9.90;;;20.90;99.90;;;;;;5044356;28;20424;-87
2022/06/20 02:52:13;;;;;;;20.80;10.57;;;21.10;99.90;;;;;;5043252;28;20419;-86
2022/06/20 02:54:40;;;;;;;18.93;10.17;;;21.20;99.90;;;;;;5028104;28;20401;-85
2022/06/20 02:57:19;;;;;;;16.97;10.13;;;21.20;99.90;;;;;;5027687;28;20451;-87
2022/06/20 02:59:49;;;;;;;13.87;8.50;;;21.30;99.90;;;;;;5027588;28;20436;-86
2022/06/20 03:02:19;;;;;;;11.93;8.17;;;21.50;99.90;;;;;;5044243;28;20991;-87
2022/06/20 03:04:45;;;;;;;20.23;10.03;;;21.60;99.90;;;;;;5025964;28;20428;-86
2022/06/20 03:07:16;;;;;;;14.63;8.90;;;21.40;99.90;;;;;;5027027;28;20400;-86
2022/06/20 03:09:45;;;;;;;18.37;9.77;;;21.30;99.90;;;;;;5026097;28;20464;-86
2022/06/20 03:12:12;;;;;;;24.60;10.90;;;21.30;99.90;;;;;;5044101;28;20404;-86
2022/06/20 03:14:46;;;;;;;27.33;9.10;;;21.20;99.90;;;;;;5043755;28;20415;-87
2022/06/20 03:17:14;;;;;;;13.73;8.83;;;21.20;99.90;;;;;;5024626;28;20409;-87
2022/06/20 03:19:42;;;;;;;13.20;7.23;;;21.00;99.90;;;;;;5042157;28;20436;-87
2022/06/20 03:22:11;;;;;;;9.07;7.10;;;20.70;99.90;;;;;;5024201;28;20500;-87
2022/06/20 03:24:37;;;;;;;16.30;8.63;;;;;;;;;;5023893;28;20412;-87
2022/06/20 03:27:06;;;;;;;17.07;8.13;;;20.70;99.90;;;;;;5024826;28;20413;-87
2022/06/20 03:29:37;;;;;;;16.20;7.47;;;20.60;99.90;;;;;;5029055;28;20473;-84
2022/06/20 03:32:03;;;;;;;15.47;7.87;;;20.60;99.90;;;;;;5060815;28;20401;-84
2022/06/20 03:34:28;;;;;;;12.73;7.57;;;20.60;99.90;;;;;;5060445;28;20757;-85
2022/06/20 03:36:54;;;;;;;14.80;8.27;;;20.50;99.90;;;;;;5073451;22;20513;-87
2022/06/20 03:39:21;;;;;;;19.30;8.20;;;20.50;99.90;;;;;;5072795;28;20249;-85
2022/06/20 03:41:49;;;;;;;12.00;6.53;;;20.50;99.90;;;;;;5059002;28;20177;-87
2022/06/20 03:44:28;;;;;;;17.77;7.00;;;22.50;99.90;;;;;;5080629;28;20461;-86
2022/06/20 03:47:30;;;;;;;10.73;7.17;;;20.40;99.90;;;;;;5073616;28;20526;-87
2022/06/20 03:49:59;;;;;;;11.83;6.23;;;20.40;99.90;;;;;;5050634;28;20516;-88
2022/06/20 03:52:30;;;;;;;15.37;6.47;;;20.40;99.90;;;;;;5043917;28;20430;-88
2022/06/20 03:55:11;;;;;;;11.20;5.93;;;20.40;99.90;;;;;;5040827;28;20467;-87
2022/06/20 03:57:43;;;;;;;15.33;6.80;;;20.30;99.90;;;;;;5039782;28;20583;-88
2022/06/20 04:00:11;;;;;;;11.30;6.83;;;20.30;99.90;;;;;;5049281;28;20447;-89
2022/06/20 04:02:39;;;;;;;10.80;6.00;;;20.30;99.90;;;;;;5040244;28;20435;-89
2022/06/20 04:05:05;;;;;;;18.87;7.17;;;;;;;;;;5038547;28;20435;-89
2022/06/20 04:07:46;;;;;;;11.03;6.30;;;20.60;99.90;;;;;;5050237;28;20449;-89
2022/06/20 04:13:35;;;;;;;15.70;6.33;;;20.60;99.90;;;;;;5057442;28;20422;-88
2022/06/20 04:16:18;;;;;;;18.80;7.50;;;20.70;99.90;;;;;;5037079;28;20838;-88
2022/06/20 04:18:45;;;;;;;16.83;5.87;;;20.70;99.90;;;;;;5057561;28;20430;-87
2022/06/20 04:21:17;;;;;;;13.03;6.23;;;20.70;99.90;;;;;;5028954;28;20524;-88
2022/06/20 04:23:52;;;;;;;11.93;7.00;;;20.60;99.90;;;;;;5030907;28;20490;-87
2022/06/20 04:26:25;;;;;;;15.23;5.50;;;20.50;99.90;;;;;;5030883;28;20849;-87
2022/06/20 04:29:00;;;;;;;11.50;6.37;;;20.60;99.90;;;;;;5059374;28;20425;-88
2022/06/20 04:31:52;;;;;;;10.60;6.83;;;20.60;99.90;;;;;;5039994;28;20432;-87
2022/06/20 04:34:26;;;;;;;11.70;6.00;;;20.70;99.90;;;;;;5038180;28;20438;-87
2022/06/20 04:38:17;;;;;;;11.37;6.33;;;20.80;99.90;;;;;;5052632;28;20583;-84
2022/06/20 04:40:52;;;;;;;9.37;5.67;;;21.00;99.90;;;;;;5052872;28;21620;-86
2022/06/20 04:43:26;;;;;;;11.37;6.10;;;21.00;99.90;;;;;;5048591;28;20434;-84
2022/06/20 04:46:03;;;;;;;16.70;7.13;;;20.90;99.90;;;;;;5047083;28;20684;-85
2022/06/20 04:48:28;;;;;;;11.10;5.70;;;20.90;99.90;;;;;;5048799;28;20466;-85
2022/06/20 04:51:00;;;;;;;17.20;6.30;;;20.90;99.90;;;;;;5049812;28;20466;-84
2022/06/20 04:53:33;;;;;;;10.00;6.27;;;20.90;99.90;;;;;;5044359;28;20191;-83
2022/06/20 04:56:02;;;;;;;10.77;5.97;;;20.90;99.90;;;;;;5043730;28;20494;-84
2022/06/20 04:58:44;;;;;;;12.30;6.20;;;21.00;99.90;;;;;;5044084;28;20442;-84
2022/06/20 05:01:11;;;;;;;9.93;5.17;;;21.20;99.90;;;;;;5044419;28;20455;-85
2022/06/20 05:03:42;;;;;;;13.03;7.37;;;21.30;99.90;;;;;;5042357;28;20438;-85
2022/06/20 05:06:20;;;;;;;10.97;5.73;;;21.40;99.90;;;;;;5040433;28;20439;-86
2022/06/20 05:08:50;;;;;;;9.50;5.77;;;21.40;99.90;;;;;;5047789;28;21125;-85
2022/06/20 05:11:22;;;;;;;12.33;5.20;;;21.20;99.90;;;;;;5053623;28;20454;-86
2022/06/20 05:14:10;;;;;;;8.27;6.17;;;21.20;99.90;;;;;;5076481;28;20424;-84
2022/06/20 05:16:45;;;;;;;17.90;6.70;;;21.20;99.90;;;;;;5055494;28;20624;-87
2022/06/20 05:19:20;;;;;;;9.50;5.80;;;21.10;99.90;;;;;;5052866;28;21033;-84
2022/06/20 05:21:50;;;;;;;8.03;5.07;;;21.10;99.90;;;;;;5051616;28;20458;-83
2022/06/20 05:24:20;;;;;;;8.83;5.00;;;21.10;99.90;;;;;;5053082;28;20424;-85
2022/06/20 05:26:49;;;;;;;8.80;5.63;;;21.00;99.90;;;;;;5047233;28;20426;-84
2022/06/20 05:29:30;;;;;;;8.00;5.03;;;21.00;99.90;;;;;;5050817;28;20453;-85
2022/06/20 05:31:59;;;;;;;13.20;5.63;;;21.30;99.90;;;;;;5048018;28;20842;-84
2022/06/20 05:34:33;;;;;;;13.17;4.80;;;21.30;99.90;;;;;;5049795;28;20448;-84
2022/06/20 05:37:21;;;;;;;9.60;5.40;;;21.60;99.90;;;;;;5062984;28;20490;-84
2022/06/20 05:39:53;;;;;;;15.87;6.23;;;21.80;99.90;;;;;;5066439;28;20501;-85
2022/06/20 05:42:19;;;;;;;11.70;6.07;;;21.80;99.90;;;;;;5056369;28;21104;-85
2022/06/20 05:44:45;;;;;;;17.80;6.30;;;;;;;;;;5058081;28;20434;-87
2022/06/20 05:47:28;;;;;;;9.47;4.70;;;22.00;99.90;;;;;;5052400;28;20204;-86
2022/06/20 05:50:11;;;;;;;10.50;5.53;;;22.20;99.90;;;;;;5041513;28;20447;-86
2022/06/20 05:52:40;;;;;;;7.90;4.70;;;22.30;99.90;;;;;;5036280;28;20444;-85
2022/06/20 05:55:16;;;;;;;13.67;4.77;;;22.60;99.90;;;;;;5050450;28;20471;-86
2022/06/20 05:57:46;;;;;;;10.00;5.67;;;23.00;99.90;;;;;;5039108;28;20472;-87
2022/06/20 06:00:20;;;;;;;9.73;4.43;;;23.30;99.90;;;;;;5041006;28;20923;-86
2022/06/20 06:02:57;;;;;;;9.87;4.97;;;23.40;99.90;;;;;;5035299;28;20450;-86
2022/06/20 06:05:37;;;;;;;10.90;4.90;;;23.70;99.90;;;;;;5033946;28;20451;-87
2022/06/20 06:08:26;;;;;;;9.90;4.50;;;23.70;99.90;;;;;;5031806;28;21692;-87
2022/06/20 06:10:59;;;;;;;9.13;5.30;;;23.90;99.90;;;;;;5026353;28;20558;-88
2022/06/20 06:13:37;;;;;;;12.97;4.90;;;23.90;99.90;;;;;;5022322;28;20588;-86
2022/06/20 06:19:30;;;;;;;17.90;5.47;;;24.20;99.90;;;;;;5023409;28;20432;-86
2022/06/20 06:22:00;;;;;;;5.67;4.90;;;24.40;99.90;;;;;;5027086;28;20506;-85
2022/06/20 06:24:26;;;;;;;9.90;5.87;;;;;;;;;;5025667;28;20440;-87
2022/06/20 06:26:56;;;;;;;12.30;4.93;;;25.10;99.90;;;;;;5036257;28;20442;-87
2022/06/20 06:29:46;;;;;;;6.93;5.03;;;26.00;99.90;;;;;;5035652;28;20432;-87
2022/06/20 06:32:19;;;;;;;8.07;5.43;;;26.20;99.90;;;;;;5031463;28;22287;-85
2022/06/20 06:34:53;;;;;;;10.87;5.37;;;27.30;99.90;;;;;;5031851;28;20964;-86
2022/06/20 06:37:35;;;;;;;10.73;6.27;;;28.40;99.90;;;;;;5034695;28;20845;-84
2022/06/20 06:40:14;;;;;;;14.43;5.43;;;30.40;99.90;;;;;;5033660;28;20453;-84
2022/06/20 06:42:40;;;;;;;10.57;5.93;;;31.40;99.90;;;;;;5034691;28;20436;-84
2022/06/20 06:45:07;;;;;;;8.30;5.20;;;31.80;99.90;;;;;;5037307;28;20808;-85
2022/06/20 06:47:46;;;;;;;9.63;5.40;;;32.40;98.30;;;;;;5036598;28;20475;-87
2022/06/20 06:50:18;;;;;;;13.53;4.60;;;33.10;96.90;;;;;;5045339;28;20451;-84
2022/06/20 06:52:50;;;;;;;9.80;5.80;;;34.10;93.80;;;;;;5046917;28;21143;-87
2022/06/20 06:55:19;;;;;;;12.33;5.77;;;34.90;91.40;;;;;;5047335;28;20903;-85
2022/06/20 06:57:49;;;;;;;11.23;5.53;;;35.30;89.20;;;;;;5035133;28;20452;-88
2022/06/20 07:00:25;;;;;;;11.50;6.00;;;36.30;83.60;;;;;;5034904;28;20446;-86
2022/06/20 07:02:58;;;;;;;10.33;5.90;;;36.20;76.70;;;;;;5032476;28;20430;-86
2022/06/20 07:05:34;;;;;;;10.10;7.00;;;36.40;74.20;;;;;;5034337;28;21118;-86
2022/06/20 07:08:14;;;;;;;14.03;8.03;;;35.90;72.80;;;;;;5033919;28;20488;-86
2022/06/20 07:11:04;;;;;;;8.33;7.53;;;36.00;74.10;;;;;;5029997;28;20487;-87
2022/06/20 07:14:06;;;;;;;7.87;7.17;;;35.80;70.40;;;;;;5037771;28;20487;-84
2022/06/20 07:17:02;;;;;;;13.40;8.70;;;35.30;71.30;;;;;;5050349;28;20485;-87
2022/06/20 07:19:28;;;;;;;10.40;8.00;;;;;;;;;;5036054;28;20547;-86
2022/06/20 07:21:57;;;;;;;17.30;8.53;;;35.00;70.40;;;;;;5027816;28;20452;-87
2022/06/20 07:24:28;;;;;;;12.33;8.40;;;34.70;72.80;;;;;;5033017;28;20434;-84
2022/06/20 07:27:06;;;;;;;8.57;7.67;;;34.30;72.70;;;;;;5043045;28;20442;-86
2022/06/20 07:29:36;;;;;;;14.17;8.80;;;34.50;72.70;;;;;;5033743;28;20538;-84
2022/06/20 07:32:08;;;;;;;9.07;7.53;;;34.10;74.90;;;;;;5033885;28;20447;-87
2022/06/20 07:34:47;;;;;;;11.40;8.17;;;33.30;74.10;;;;;;5029758;28;20476;-87
2022/06/20 07:37:23;;;;;;;18.00;8.40;;;32.40;76.00;;;;;;5032444;28;20507;-84
2022/06/20 07:39:57;;;;;;;12.00;7.17;;;32.60;82.30;;;;;;5032378;28;20449;-86
2022/06/20 07:42:34;;;;;;;12.13;6.77;;;31.60;79.10;;;;;;5032390;28;20883;-86
2022/06/20 07:45:10;;;;;;;9.87;6.77;;;31.60;79.50;;;;;;5028487;28;20852;-86
2022/06/20 07:47:53;;;;;;;10.60;6.50;;;30.30;83.70;;;;;;5025032;28;20463;-85
2022/06/20 07:50:24;;;;;;;14.70;7.03;;;30.80;88.00;;;;;;5038132;28;20542;-87
2022/06/20 07:52:56;;;;;;;11.50;6.30;;;31.70;85.60;;;;;;5030195;28;20886;-86
2022/06/20 07:55:26;;;;;;;15.10;6.10;;;32.20;81.40;;;;;;5032244;28;20594;-85
2022/06/20 07:58:03;;;;;;;16.53;6.60;;;32.00;81.90;;;;;;5031856;28;20475;-83
2022/06/20 08:00:37;;;;;;;12.13;6.83;;;31.70;80.80;;;;;;5029690;28;20498;-85
2022/06/20 08:03:14;;;;;;;13.97;6.40;;;31.50;81.00;;;;;;5034622;28;20417;-85
2022/06/20 08:05:50;;;;;;;14.83;7.47;;;31.20;82.50;;;;;;5034742;28;20438;-86
2022/06/20 08:08:29;;;;;;;18.80;6.63;;;32.70;82.30;;;;;;5033558;28;20464;-86
2022/06/20 08:11:09;;;;;;;9.67;6.40;;;33.10;85.50;;;;;;5030210;28;20458;-87
2022/06/20 08:13:49;;;;;;;7.80;5.93;;;32.90;77.50;;;;;;5029987;28;20434;-86
2022/06/20 08:16:19;;;;;;;12.13;7.00;;;33.70;76.40;;;;;;5029646;28;20477;-86
2022/06/20 08:18:46;;;;;;;13.70;8.00;;;;;;;;;;5027734;28;20541;-85
2022/06/20 08:21:13;;;;;;;10.20;7.60;;;35.20;71.40;;;;;;5035685;28;20500;-87
2022/06/20 08:23:48;;;;;;;13.13;7.63;;;36.30;71.30;;;;;;5033085;28;20434;-86
2022/06/20 08:26:20;;;;;;;15.40;8.40;;;36.00;66.60;;;;;;5032299;28;20506;-87
2022/06/20 08:28:53;;;;;;;10.60;9.40;;;35.90;63.30;;;;;;5038624;28;20524;-85
2022/06/20 08:31:33;;;;;;;9.77;8.17;;;35.60;86.20;;;;;;5043476;28;20457;-87
2022/06/20 08:34:18;;;;;;;11.10;9.00;;;36.10;65.80;;;;;;5045569;28;20471;-88
2022/06/20 08:37:04;;;;;;;14.30;10.10;;;36.10;62.60;;;;;;5039057;28;20487;-86
2022/06/20 08:39:48;;;;;;;15.73;9.97;;;37.10;60.40;;;;;;5036333;28;20472;-85
2022/06/20 08:42:14;;;;;;;11.90;10.80;;;;;;;;;;5037367;28;20436;-84
2022/06/20 08:45:06;;;;;;;18.63;10.77;;;34.30;68.30;;;;;;5033088;28;20474;-87
2022/06/20 08:48:08;;;;;;;13.60;9.50;;;35.10;70.70;;;;;;5040835;28;20450;-84
2022/06/20 08:50:59;;;;;;;13.77;9.83;;;35.40;62.70;;;;;;5037778;28;20465;-87
2022/06/20 08:53:58;;;;;;;15.33;10.57;;;36.10;64.30;;;;;;5033684;28;20456;-86
2022/06/20 08:56:38;;;;;;;18.73;10.77;;;36.30;70.80;;;;;;5032617;28;20539;-86
2022/06/20 08:59:06;;;;;;;18.80;11.90;;;;;;;;;;5041484;28;20915;-84
2022/06/20 09:02:00;;;;;;;19.30;10.67;;;31.10;67.20;;;;;;5043102;28;21023;-84
2022/06/20 09:04:55;;;;;;;8.90;8.00;;;29.10;75.00;;;;;;5044429;28;20473;-84
2022/06/20 09:07:37;;;;;;;7.73;6.90;;;28.90;77.50;;;;;;5033908;28;20814;-83
2022/06/20 09:10:11;;;;;;;10.13;7.33;;;28.00;86.60;;;;;;5026501;28;20444;-84
2022/06/20 09:12:39;;;;;;;13.07;6.60;;;27.80;87.30;;;;;;5023595;28;21451;-86
2022/06/20 09:15:35;;;;;;;11.80;6.30;;;27.00;91.10;;;;;;5034799;28;20466;-85
2022/06/20 09:18:25;;;;;;;7.93;5.77;;;27.00;92.70;;;;;;5029214;28;20462;-84
2022/06/20 09:21:11;;;;;;;13.37;6.83;;;26.40;94.50;;;;;;5024366;28;20450;-83
2022/06/20 09:23:52;;;;;;;14.43;6.53;;;26.70;95.90;;;;;;5030041;28;20431;-84
2022/06/20 09:26:31;;;;;;;8.73;6.33;;;26.30;96.70;;;;;;5035481;28;20443;-85
2022/06/20 09:29:15;;;;;;;13.10;7.73;;;26.50;97.80;;;;;;5042369;28;20452;-85
2022/06/20 09:32:05;;;;;;;18.20;7.03;;;26.00;98.70;;;;;;5035151;28;20450;-83
2022/06/20 09:34:58;;;;;;;7.50;5.50;;;26.00;99.50;;;;;;5030289;28;20527;-84
2022/06/20 09:37:53;;;;;;;12.47;6.70;;;26.20;99.90;;;;;;5037265;28;20474;-83
2022/06/20 09:40:36;;;;;;;12.23;6.40;;;26.70;99.90;;;;;;5035999;28;20450;-83
2022/06/20 09:43:38;;;;;;;15.23;6.23;;;27.10;99.90;;;;;;5030534;28;20467;-85
2022/06/20 09:46:30;;;;;;;18.30;8.07;;;27.10;99.00;;;;;;5037617;28;20528;-85
2022/06/20 09:49:28;;;;;;;11.20;7.30;;;27.10;99.20;;;;;;5030925;28;20441;-84
2022/06/20 09:52:08;;;;;;;16.80;6.50;;;26.80;99.00;;;;;;5039931;28;20460;-86
2022/06/20 09:54:44;;;;;;;12.70;6.57;;;27.40;99.90;;;;;;5030056;28;20442;-85
2022/06/20 09:57:27;;;;;;;11.33;6.80;;;27.50;99.90;;;;;;5034832;28;20473;-86
2022/06/20 10:00:04;;;;;;;12.17;6.30;;;29.60;97.80;;;;;;5031635;28;20456;-86
2022/06/20 10:02:50;;;;;;;20.33;7.30;;;30.50;95.50;;;;;;5029365;28;20451;-84
2022/06/20 10:05:16;;;;;;;16.17;6.97;;;;;;;;;;5033545;28;20439;-84
2022/06/20 10:07:57;;;;;;;18.93;6.40;;;29.20;94.30;;;;;;5046967;28;20442;-85
2022/06/20 10:11:04;;;;;;;10.30;6.77;;;29.00;93.50;;;;;;5041939;28;20204;-88
2022/06/20 10:13:48;;;;;;;18.80;7.40;;;28.60;94.60;;;;;;5030712;28;21029;-84
2022/06/20 10:16:27;;;;;;;9.63;6.67;;;28.70;95.10;;;;;;5025300;28;20818;-85
2022/06/20 10:19:17;;;;;;;16.67;6.90;;;27.90;96.90;;;;;;5030835;28;20468;-83
2022/06/20 10:22:07;;;;;;;11.83;7.07;;;28.00;95.80;;;;;;5047234;28;20463;-83
2022/06/20 10:24:41;;;;;;;12.37;7.13;;;28.00;96.10;;;;;;5067892;22;21141;-87
2022/06/20 10:27:23;;;;;;;18.77;7.30;;;27.80;96.70;;;;;;5037681;28;20447;-88
2022/06/20 10:30:14;;;;;;;14.70;6.53;;;27.90;96.90;;;;;;5032629;28;20451;-87
2022/06/20 10:32:40;;;;;;;12.33;6.20;;;;;;;;;;5045700;28;20436;-88
2022/06/20 10:35:38;;;;;;;19.20;9.50;;;28.50;96.30;;;;;;5037438;28;20543;-90
2022/06/20 10:38:06;;;;;;;15.53;7.40;;;;;;;;;;5016228;28;22032;-86
2022/06/20 10:40:56;;;;;;;14.93;5.90;;;28.20;97.00;;;;;;5012280;28;20439;-84
2022/06/20 10:43:22;;;;;;;14.83;6.67;;;;;;;;;;5022380;28;20440;-88
2022/06/20 10:46:04;;;;;;;8.43;6.83;;;28.30;97.20;;;;;;5038486;28;21226;-88
2022/06/20 10:48:38;;;;;;;15.77;6.27;;;28.20;97.00;;;;;;5026456;28;20432;-88
2022/06/20 10:51:25;;;;;;;13.33;8.37;;;28.30;96.60;;;;;;5020746;28;20443;-87
2022/06/20 10:54:38;;;;;;;23.40;7.70;;;27.80;96.30;;;;;;5037570;28;20442;-86
2022/06/20 10:57:22;;;;;;;6.53;5.90;;;27.70;97.10;;;;;;5016346;28;20468;-88
2022/06/20 11:00:17;;;;;;;15.13;6.80;;;27.60;98.00;;;;;;5041000;28;20446;-88
2022/06/20 11:02:43;;;;;;;8.70;7.07;;;;;;;;;;5022140;28;20477;-89
2022/06/20 11:05:18;;;;;;;9.23;6.30;;;26.40;98.90;;;;;;5023420;28;21730;-88
2022/06/20 11:07:49;;;;;;;10.60;6.63;;;;;;;;;;5015054;28;20445;-86
2022/06/20 11:10:39;;;;;;;13.30;7.30;;;25.60;99.90;;;;;;5028030;28;20436;-89
2022/06/20 11:13:28;;;;;;;13.63;6.73;;;25.50;99.90;;;;;;5023276;28;20441;-86
2022/06/20 11:16:13;;;;;;;12.63;5.50;;;25.40;99.90;;;;;;5025479;28;20456;-86
2022/06/20 11:19:14;;;;;;;5.97;4.53;;;28.00;99.90;;;;;;5025399;28;20531;-87
2022/06/20 11:21:55;;;;;;;10.73;5.93;;;25.50;99.90;;;;;;5028536;28;20486;-86
2022/06/20 11:24:49;;;;;;;12.20;5.90;;;25.50;99.90;;;;;;5027789;28;20477;-86
2022/06/20 11:27:44;;;;;;;12.57;5.73;;;25.80;99.90;;;;;;5032174;28;20471;-88
2022/06/20 11:30:23;;;;;;;9.03;5.00;;;25.90;99.90;;;;;;5058236;28;20503;-91
2022/06/20 11:32:49;;;;;;;15.40;5.13;;;;;;;;;;5029883;28;20793;-88
2022/06/20 11:35:36;;;;;;;8.10;5.77;;;25.80;99.90;;;;;;5041601;28;21212;-89
2022/06/20 11:38:43;;;;;;;9.10;5.17;;;25.70;99.90;;;;;;5043073;28;20555;-89
2022/06/20 11:41:12;;;;;;;8.17;5.00;;;25.30;99.90;;;;;;4982562;28;20497;-89
2022/06/20 11:44:09;;;;;;;9.80;5.07;;;24.70;99.90;;;;;;4986965;28;20426;-89
2022/06/20 11:47:13;;;;;;;16.57;6.23;;;24.80;99.90;;;;;;4996928;28;20436;-88
2022/06/20 11:49:54;;;;;;;14.33;6.63;;;24.70;99.90;;;;;;5023251;28;20444;-89
2022/06/20 11:52:32;;;;;;;18.20;6.30;;;25.10;99.90;;;;;;5019211;28;20811;-87
2022/06/20 11:54:58;;;;;;;16.43;5.80;;;;;;;;;;5029338;28;20481;-87
2022/06/20 11:57:55;;;;;;;10.67;5.30;;;25.10;99.90;;;;;;5043637;28;20455;-86
2022/06/20 12:00:29;;;;;;;10.47;5.53;;;24.80;99.90;;;;;;5048964;28;20504;-89
2022/06/20 12:03:28;;;;;;;10.23;6.63;;;24.80;99.90;;;;;;5053479;28;20433;-88
2022/06/20 12:06:35;;;;;;;13.93;6.10;;;24.70;99.90;;;;;;5026299;28;20471;-88
2022/06/20 12:09:19;;;;;;;12.13;6.17;;;24.70;99.90;;;;;;5018880;28;20443;-87
2022/06/20 12:12:03;;;;;;;13.57;6.37;;;25.00;99.90;;;;;;5021884;28;20428;-86
2022/06/20 12:15:05;;;;;;;10.67;5.57;;;25.40;99.90;;;;;;5021622;28;20455;-85
2022/06/20 12:18:00;;;;;;;10.23;5.00;;;25.80;99.90;;;;;;5019794;28;20469;-88
2022/06/20 12:23:42;;;;;;;10.70;6.03;;;25.70;99.90;;;;;;5030167;28;20505;-89
2022/06/20 12:26:13;;;;;;;11.60;5.87;;;25.50;99.90;;;;;;5028045;28;20432;-88
2022/06/20 12:28:42;;;;;;;6.07;5.23;;;25.40;99.90;;;;;;5026582;28;20976;-89
2022/06/20 12:31:08;;;;;;;6.40;4.97;;;;;;;;;;5028912;28;20425;-90
2022/06/20 12:33:40;;;;;;;10.43;5.87;;;24.80;99.90;;;;;;5043544;28;20420;-89
2022/06/20 12:36:31;;;;;;;6.50;4.53;;;24.60;99.90;;;;;;5024471;28;20428;-87
2022/06/20 12:39:02;;;;;;;14.73;5.37;;;24.20;99.90;;;;;;5022581;28;20439;-88
2022/06/20 12:41:34;;;;;;;5.73;4.57;;;23.50;99.90;;;;;;5021917;28;20428;-88
2022/06/20 12:44:06;;;;;;;12.63;5.10;;;23.60;99.90;;;;;;5032290;28;20452;-89
2022/06/20 12:47:01;;;;;;;10.93;5.90;;;23.60;99.90;;;;;;5043321;28;20478;-90
2022/06/20 12:49:45;;;;;;;9.77;5.23;;;23.50;99.90;;;;;;5042428;28;20430;-88
2022/06/20 12:52:29;;;;;;;5.30;4.67;;;23.40;99.90;;;;;;5023533;28;20475;-89
2022/06/20 12:55:23;;;;;;;7.13;5.23;;;23.30;99.90;;;;;;5022005;28;20467;-87
2022/06/20 12:58:18;;;;;;;6.17;4.43;;;22.90;99.90;;;;;;5015746;28;21558;-88
2022/06/20 13:01:10;;;;;;;9.10;5.63;;;22.40;99.90;;;;;;5027444;28;20432;-85
2022/06/20 13:03:54;;;;;;;10.10;5.10;;;23.00;99.90;;;;;;5034351;28;20901;-88
2022/06/20 13:06:53;;;;;;;8.03;5.77;;;23.10;99.90;;;;;;5026441;28;20439;-87
2022/06/20 13:09:58;;;;;;;5.43;4.57;;;23.60;99.90;;;;;;5021461;28;20517;-87
2022/06/20 13:12:56;;;;;;;4.87;4.10;;;23.50;99.90;;;;;;4967303;28;20443;-85
2022/06/20 13:15:34;;;;;;;7.30;4.63;;;23.60;99.90;;;;;;5041512;28;20498;-86
2022/06/20 13:18:25;;;;;;;9.37;4.63;;;24.20;99.90;;;;;;5017635;28;20463;-87
2022/06/20 13:20:57;;;;;;;11.40;4.87;;;24.20;99.90;;;;;;5039260;28;20502;-86
2022/06/20 13:23:44;;;;;;;4.87;3.63;;;24.30;99.90;;;;;;5017450;28;20450;-88
2022/06/20 13:26:36;;;;;;;4.80;4.10;;;24.70;99.90;;;;;;5016048;28;20444;-86
2022/06/20 13:29:02;;;;;;;6.30;3.87;;;;;;;;;;5016221;28;20618;-88
2022/06/20 13:31:38;;;;;;;7.20;4.10;;;24.60;99.90;;;;;;5017884;28;20432;-87
2022/06/20 13:34:16;;;;;;;8.40;4.00;;;24.50;99.90;;;;;;5039536;28;21031;-88
2022/06/20 13:36:51;;;;;;;7.43;4.40;;;24.50;99.90;;;;;;5038561;28;20463;-87
2022/06/20 13:39:27;;;;;;;6.43;3.93;;;24.30;99.90;;;;;;5023407;28;21017;-85
2022/06/20 13:42:10;;;;;;;4.77;3.50;;;24.40;99.90;;;;;;5012814;28;20505;-89
2022/06/20 13:44:58;;;;;;;10.43;4.50;;;24.70;99.90;;;;;;5032694;28;20452;-90
2022/06/20 13:47:46;;;;;;;4.47;4.07;;;24.70;99.90;;;;;;5032323;28;20444;-85
2022/06/20 13:50:36;;;;;;;4.47;3.63;;;24.70;99.90;;;;;;5031989;28;20963;-87
2022/06/20 13:53:05;;;;;;;3.97;3.57;;;24.90;99.90;;;;;;5013210;28;20545;-87